createdAt,value
2023-04-22T12:10:03.509Z,21.6
2023-04-22T12:15:12.781Z,20.3
2023-04-22T12:20:01.263Z,17.4
2023-04-22T12:25:01.188Z,17.2
2023-04-22T12:30:02.372Z,16.5
2023-04-22T12:35:01.162Z,15.6
2023-04-22T12:40:01.163Z,14.3
2023-04-22T12:45:02.640Z,15.5
2023-04-22T12:50:01.259Z,16.5
2023-04-22T12:55:01.253Z,16.9
2023-04-22T13:00:01.704Z,17.0
2023-04-22T13:05:01.206Z,18.4
2023-04-22T13:10:01.255Z,18.4
2023-04-22T13:15:02.782Z,17.6
2023-04-22T13:20:01.157Z,17.3
2023-04-22T13:25:01.163Z,13.8
2023-04-22T13:30:02.176Z,13.1
2023-04-22T13:35:04.132Z,13.9
2023-04-22T13:40:01.153Z,13.0
2023-04-22T13:45:01.885Z,13.1
2023-04-22T13:50:01.249Z,15.6
2023-04-22T13:55:01.167Z,15.6
2023-04-22T14:00:01.925Z,13.7
2023-04-22T14:05:01.175Z,14.2
2023-04-22T14:10:01.344Z,14.6
2023-04-22T14:15:01.744Z,14.7
2023-04-22T14:20:01.246Z,14.5
2023-04-22T14:30:02.316Z,14.0
2023-04-22T14:35:01.170Z,13.0
2023-04-22T14:40:01.211Z,13.2
2023-04-22T14:45:01.839Z,13.2
2023-04-22T14:50:01.329Z,13.7
2023-04-22T14:55:15.878Z,14.3
2023-04-22T15:00:01.993Z,14.8
2023-04-22T15:05:01.176Z,15.8
2023-04-22T15:10:01.329Z,16.4
2023-04-22T15:15:01.575Z,16.8
2023-04-22T15:20:01.729Z,17.2
2023-04-22T15:25:01.164Z,18.1
2023-04-22T15:30:02.387Z,17.6
2023-04-22T15:35:01.162Z,17.4
2023-04-22T15:40:01.260Z,16.5
2023-04-22T15:45:05.402Z,16.2
2023-04-22T15:50:01.297Z,15.5
2023-04-22T15:55:01.692Z,15.8
2023-04-22T16:00:15.023Z,16.6
2023-04-22T16:05:01.174Z,18.3
2023-04-22T16:10:02.506Z,19.6
2023-04-22T16:15:01.962Z,20.4
2023-04-22T16:20:01.397Z,20.0
2023-04-22T16:25:01.164Z,20.1
2023-04-22T16:30:01.628Z,20.2
2023-04-22T16:35:01.272Z,19.6
2023-04-22T16:45:01.866Z,20.9
2023-04-22T16:50:01.159Z,21.0
2023-04-22T16:55:01.174Z,21.8
2023-04-22T17:00:02.692Z,22.0
2023-04-22T17:05:01.286Z,22.2
2023-04-22T17:10:01.161Z,22.6
2023-04-22T17:15:02.101Z,22.5
2023-04-22T17:20:01.791Z,22.5
2023-04-22T17:25:01.251Z,22.5
2023-04-22T17:30:02.044Z,23.2
2023-04-22T17:35:01.173Z,22.6
2023-04-22T17:40:01.299Z,23.1
2023-04-22T17:45:02.168Z,23.2
2023-04-22T17:51:02.038Z,23.3
2023-04-22T17:56:01.177Z,23.2
2023-04-22T18:01:01.936Z,23.7
2023-04-22T18:06:01.640Z,24.0
2023-04-22T18:11:01.156Z,24.4
2023-04-22T18:16:01.155Z,26.3
2023-04-22T18:21:01.729Z,28.1
2023-04-22T18:26:01.160Z,30.0
2023-04-22T18:31:01.160Z,31.3
2023-04-22T18:36:01.815Z,33.2
2023-04-22T18:41:01.654Z,36.2
2023-04-22T18:51:01.885Z,40.1
2023-04-22T18:56:01.161Z,40.6
2023-04-22T19:01:01.394Z,40.2
2023-04-22T19:06:01.574Z,37.7
2023-04-22T19:11:01.228Z,34.8
2023-04-22T19:16:01.337Z,31.7
2023-04-22T19:21:01.301Z,32.2
2023-04-22T19:26:01.174Z,30.8
2023-04-22T19:31:01.327Z,31.0
2023-04-22T19:36:01.196Z,29.9
2023-04-22T19:41:01.676Z,30.7
2023-04-22T19:46:01.183Z,29.9
2023-04-22T19:51:01.183Z,32.1
2023-04-22T19:56:01.229Z,32.6
2023-04-22T20:01:01.337Z,34.3
2023-04-22T20:06:01.231Z,34.7
2023-04-22T20:11:01.172Z,34.3
2023-04-22T20:16:01.283Z,33.2
2023-04-22T20:21:02.861Z,32.4
2023-04-22T20:26:01.254Z,32.5
2023-04-22T20:31:01.167Z,32.3
2023-04-22T20:36:01.155Z,32.4
2023-04-22T20:41:04.978Z,32.4
2023-04-22T20:46:01.316Z,32.1
2023-04-22T20:51:01.164Z,32.6
2023-04-22T20:56:01.264Z,31.8
2023-04-22T21:01:02.104Z,32.0
2023-04-22T21:06:01.194Z,32.0
2023-04-22T21:11:01.168Z,32.5
2023-04-22T21:16:01.236Z,32.1
2023-04-22T21:21:01.263Z,32.9
2023-04-22T21:26:01.257Z,32.6
2023-04-22T21:31:01.193Z,32.5
2023-04-22T21:36:01.283Z,32.6
2023-04-22T21:41:01.252Z,32.8
2023-04-22T21:46:01.360Z,33.0
2023-04-22T21:51:01.242Z,33.5
2023-04-22T21:56:01.164Z,34.0
2023-04-22T22:01:01.185Z,34.0
2023-04-22T22:06:01.155Z,34.8
2023-04-22T22:11:01.210Z,35.2
2023-04-22T22:16:01.236Z,35.6
2023-04-22T22:21:01.778Z,35.8
2023-04-22T22:31:01.159Z,34.8
2023-04-22T22:36:01.218Z,34.8
2023-04-22T22:41:01.384Z,34.8
2023-04-22T22:46:01.423Z,34.9
2023-04-22T22:51:01.234Z,34.8
2023-04-22T22:56:01.228Z,35.8
2023-04-22T23:01:01.337Z,35.5
2023-04-22T23:06:01.186Z,35.0
2023-04-22T23:11:01.175Z,34.4
2023-04-22T23:16:01.187Z,34.2
2023-04-22T23:21:01.379Z,33.1
2023-04-22T23:26:01.231Z,32.6
2023-04-22T23:31:02.299Z,33.1
2023-04-22T23:36:01.198Z,33.4
2023-04-22T23:41:01.254Z,33.5
2023-04-22T23:51:01.249Z,34.0
2023-04-22T23:56:01.172Z,32.2
